Time;durP1;ratioP1;P1;durP2;ratioP2;P2;SDS_P1;SDS_P2;PMS_P1;PMS_P2;Temp;Humidity;BMP_temperature;BMP_pressure;BME280_temperature;BME280_humidity;BME280_pressure;Samples;Min_cycle;Max_cycle;Signal;HPM_P1;HPM_P2
2023/05/12 00:00:40;;;;;;;3.90;3.47;;;22.20;91.60;;;;;;4981984;28;20465;-80
2023/05/12 00:03:07;;;;;;;6.50;3.93;;;22.20;91.60;;;;;;4983964;28;20456;-80
2023/05/12 00:05:35;;;;;;;4.97;3.97;;;22.10;91.50;;;;;;4991896;28;20471;-80
2023/05/12 00:08:01;;;;;;;5.00;3.77;;;22.20;91.60;;;;;;4995674;28;20457;-80
2023/05/12 00:10:28;;;;;;;4.20;3.90;;;22.20;91.60;;;;;;4990526;28;20467;-80
2023/05/12 00:12:55;;;;;;;3.90;3.60;;;22.10;91.50;;;;;;4994382;28;20461;-80
2023/05/12 00:15:22;;;;;;;5.57;4.17;;;22.20;91.50;;;;;;4985722;28;20464;-80
2023/05/12 00:17:51;;;;;;;3.37;3.00;;;22.10;91.50;;;;;;4988245;28;20467;-80
2023/05/12 00:20:18;;;;;;;3.37;3.07;;;22.10;91.50;;;;;;4990466;28;20457;-80
2023/05/12 00:22:46;;;;;;;3.63;3.33;;;22.10;91.50;;;;;;4995135;28;20970;-80
2023/05/12 00:25:12;;;;;;;4.60;4.20;;;22.10;91.50;;;;;;4995305;28;20920;-80
2023/05/12 00:27:39;;;;;;;3.50;3.10;;;22.10;91.50;;;;;;4985579;28;20468;-80
2023/05/12 00:30:07;;;;;;;3.60;3.30;;;22.10;91.50;;;;;;4984032;28;20467;-80
2023/05/12 00:32:34;;;;;;;3.30;3.10;;;22.10;91.50;;;;;;4994288;28;21020;-80
2023/05/12 00:35:01;;;;;;;4.00;3.70;;;22.10;91.50;;;;;;4980310;28;20940;-80
2023/05/12 00:37:28;;;;;;;3.97;3.30;;;22.10;91.40;;;;;;4954185;28;1041888;-80
2023/05/12 00:39:56;;;;;;;3.93;3.13;;;22.10;91.50;;;;;;4985413;28;20218;-81
2023/05/12 00:42:23;;;;;;;3.83;3.53;;;22.10;91.50;;;;;;5003555;28;20451;-80
2023/05/12 00:44:50;;;;;;;3.63;3.30;;;22.10;91.50;;;;;;4992902;28;20465;-80
2023/05/12 00:47:16;;;;;;;3.40;3.10;;;22.10;91.50;;;;;;4989003;28;20467;-80
2023/05/12 00:49:43;;;;;;;3.80;3.50;;;22.10;91.40;;;;;;4992801;28;20531;-80
2023/05/12 00:52:10;;;;;;;4.00;3.60;;;22.10;91.50;;;;;;4992130;28;20947;-81
2023/05/12 00:54:38;;;;;;;3.70;3.40;;;22.10;91.50;;;;;;4994713;28;20440;-80
2023/05/12 00:57:07;;;;;;;3.50;3.20;;;22.10;91.40;;;;;;4991758;28;20464;-80
2023/05/12 00:59:33;;;;;;;3.83;3.00;;;22.00;91.40;;;;;;5006006;28;21032;-81
2023/05/12 01:02:00;;;;;;;3.57;3.13;;;22.00;91.40;;;;;;4981743;28;21039;-80
2023/05/12 01:04:28;;;;;;;3.53;3.00;;;22.00;91.40;;;;;;4991003;28;20476;-80
2023/05/12 01:06:59;;;;;;;4.27;3.87;;;22.00;91.40;;;;;;4996427;28;20349;-80
2023/05/12 01:09:26;;;;;;;2.87;2.67;;;22.00;91.40;;;;;;4991245;28;20799;-80
2023/05/12 01:11:53;;;;;;;4.17;3.77;;;22.00;91.40;;;;;;4992633;28;20429;-80
2023/05/12 01:14:21;;;;;;;3.90;3.60;;;22.00;91.40;;;;;;4996282;28;20476;-80
2023/05/12 01:16:51;;;;;;;4.13;3.73;;;22.00;91.40;;;;;;4992971;28;20489;-79
2023/05/12 01:19:32;;;;;;;3.17;2.87;;;22.00;91.40;;;;;;4990957;28;21017;-80
2023/05/12 01:22:00;;;;;;;4.00;3.60;;;22.00;91.40;;;;;;4991517;28;20467;-79
2023/05/12 01:24:29;;;;;;;3.80;3.50;;;22.00;91.40;;;;;;4991283;28;20464;-79
2023/05/12 01:26:57;;;;;;;3.23;2.93;;;22.00;91.40;;;;;;4985995;28;20452;-79
2023/05/12 01:29:25;;;;;;;3.43;3.13;;;22.00;91.40;;;;;;4995787;28;20445;-80
2023/05/12 01:31:52;;;;;;;2.63;2.43;;;22.00;91.40;;;;;;4991229;28;20809;-79
2023/05/12 01:34:18;;;;;;;3.10;2.80;;;22.00;91.40;;;;;;4988422;28;20461;-80
2023/05/12 01:36:45;;;;;;;3.27;2.97;;;21.90;91.30;;;;;;4991766;28;20992;-81
2023/05/12 01:39:13;;;;;;;3.40;3.10;;;21.90;91.40;;;;;;4987542;28;20476;-80
2023/05/12 01:41:39;;;;;;;3.43;3.13;;;21.90;91.40;;;;;;4994099;28;20939;-80
2023/05/12 01:44:08;;;;;;;4.17;3.77;;;21.90;91.50;;;;;;4996196;28;20556;-80
2023/05/12 01:46:35;;;;;;;3.30;3.00;;;21.90;91.40;;;;;;4987141;28;20483;-80
2023/05/12 01:49:02;;;;;;;3.63;3.27;;;21.90;91.40;;;;;;4990259;28;20488;-80
2023/05/12 01:51:28;;;;;;;3.70;3.00;;;21.90;91.40;;;;;;4991627;28;20443;-80
2023/05/12 01:53:55;;;;;;;3.53;3.20;;;21.90;91.40;;;;;;4996153;28;20459;-80
2023/05/12 01:56:22;;;;;;;3.53;3.20;;;21.90;91.30;;;;;;4990252;28;20464;-79
2023/05/12 01:58:49;;;;;;;3.20;2.90;;;21.90;91.40;;;;;;4995052;28;20492;-79
2023/05/12 02:01:17;;;;;;;3.60;3.30;;;21.90;91.40;;;;;;4986157;28;20466;-80
2023/05/12 02:03:43;;;;;;;3.07;2.70;;;21.90;91.40;;;;;;4987609;28;20455;-79
2023/05/12 02:06:10;;;;;;;3.37;3.10;;;21.90;91.30;;;;;;4991391;28;20484;-79
2023/05/12 02:08:37;;;;;;;3.07;2.77;;;21.90;91.30;;;;;;4996073;28;20463;-80
2023/05/12 02:11:05;;;;;;;2.77;2.57;;;21.90;91.40;;;;;;4995933;28;20467;-78
2023/05/12 02:13:32;;;;;;;3.30;2.70;;;21.90;91.40;;;;;;4986797;28;20463;-80
2023/05/12 02:15:59;;;;;;;8.50;3.70;;;21.90;91.40;;;;;;4983932;28;20468;-80
2023/05/12 02:18:27;;;;;;;3.10;2.65;;;21.80;91.30;;;;;;4985482;28;20457;-80
2023/05/12 02:20:54;;;;;;;3.10;2.80;;;21.90;91.40;;;;;;4982567;28;20535;-80
2023/05/12 02:23:21;;;;;;;4.43;3.47;;;21.90;91.40;;;;;;4991310;28;20460;-80
2023/05/12 02:25:48;;;;;;;3.90;3.42;;;21.80;91.30;;;;;;4983649;28;20826;-77
2023/05/12 02:28:15;;;;;;;3.50;3.20;;;21.80;91.30;;;;;;4983648;28;20213;-80
2023/05/12 02:30:45;;;;;;;3.63;3.15;;;21.80;91.30;;;;;;4986775;28;20464;-80
2023/05/12 02:33:12;;;;;;;3.17;2.87;;;21.80;91.30;;;;;;4988686;28;20193;-80
2023/05/12 02:35:40;;;;;;;4.25;3.70;;;21.80;91.40;;;;;;4988860;28;20543;-80
2023/05/12 02:38:07;;;;;;;4.18;3.25;;;21.80;91.40;;;;;;4987116;28;20209;-78
2023/05/12 02:40:33;;;;;;;3.00;2.80;;;21.80;91.30;;;;;;4993813;28;20235;-79
2023/05/12 02:43:00;;;;;;;2.60;2.40;;;21.80;91.30;;;;;;4997042;28;20197;-79
2023/05/12 02:45:27;;;;;;;3.27;2.97;;;21.80;91.40;;;;;;4988178;28;20213;-79
2023/05/12 02:47:54;;;;;;;3.37;3.10;;;21.80;91.40;;;;;;4992066;28;20444;-79
2023/05/12 02:50:21;;;;;;;4.03;3.65;;;21.80;91.40;;;;;;4994931;28;20467;-78
2023/05/12 02:52:49;;;;;;;3.17;2.87;;;21.80;91.40;;;;;;4995828;28;20552;-80
2023/05/12 02:55:16;;;;;;;4.00;3.40;;;21.80;91.40;;;;;;4979452;28;20458;-79
2023/05/12 02:57:43;;;;;;;3.80;3.50;;;21.70;91.30;;;;;;4992381;28;20474;-80
2023/05/12 03:00:11;;;;;;;2.90;2.70;;;21.80;91.30;;;;;;4989244;28;20496;-79
2023/05/12 03:02:38;;;;;;;3.13;2.83;;;21.70;91.30;;;;;;4999640;28;20540;-80
2023/05/12 03:05:06;;;;;;;3.17;2.80;;;21.70;91.30;;;;;;4991432;28;20198;-81
2023/05/12 03:07:33;;;;;;;3.47;2.70;;;21.70;91.30;;;;;;4991362;28;20217;-80
2023/05/12 03:10:01;;;;;;;3.50;3.20;;;21.70;91.40;;;;;;4987034;28;20249;-81
2023/05/12 03:12:28;;;;;;;3.10;2.83;;;21.70;91.40;;;;;;4983535;28;20533;-81
2023/05/12 03:14:55;;;;;;;3.73;3.00;;;21.70;91.40;;;;;;4986799;28;20576;-81
2023/05/12 03:17:22;;;;;;;4.00;3.70;;;21.70;91.30;;;;;;4996739;28;20514;-80
2023/05/12 03:19:49;;;;;;;2.55;2.35;;;21.70;91.30;;;;;;4991039;28;21008;-80
2023/05/12 03:22:16;;;;;;;3.40;3.03;;;21.70;91.40;;;;;;4988292;28;20209;-80
2023/05/12 03:24:43;;;;;;;4.00;2.90;;;21.70;91.40;;;;;;4984695;28;20472;-80
2023/05/12 03:27:11;;;;;;;2.87;2.63;;;21.70;91.40;;;;;;4996954;28;20604;-79
2023/05/12 03:29:38;;;;;;;2.50;2.30;;;21.70;91.40;;;;;;4993177;28;20873;-79
2023/05/12 03:32:05;;;;;;;2.70;2.50;;;21.70;91.30;;;;;;4989778;28;20561;-79
2023/05/12 03:34:32;;;;;;;2.90;2.60;;;21.60;91.30;;;;;;4997125;28;20460;-80
2023/05/12 03:36:58;;;;;;;2.90;2.50;;;21.70;91.30;;;;;;4983819;28;20236;-80
2023/05/12 03:39:25;;;;;;;3.50;2.97;;;21.70;91.50;;;;;;4984609;28;20480;-80
2023/05/12 03:41:52;;;;;;;2.93;2.73;;;21.60;91.30;;;;;;4987421;28;20292;-80
2023/05/12 03:44:20;;;;;;;2.90;2.63;;;21.70;91.40;;;;;;4985930;28;20471;-78
2023/05/12 03:46:46;;;;;;;3.33;3.03;;;21.60;91.30;;;;;;4985075;28;20472;-78
2023/05/12 03:49:13;;;;;;;3.03;2.40;;;21.60;91.30;;;;;;4985879;28;20205;-80
2023/05/12 03:51:40;;;;;;;3.60;3.30;;;21.60;91.40;;;;;;4986918;28;20478;-79
2023/05/12 03:54:06;;;;;;;3.20;2.90;;;21.60;91.30;;;;;;4986331;28;20476;-80
2023/05/12 03:56:33;;;;;;;3.70;3.40;;;21.60;91.40;;;;;;4988835;28;20470;-79
2023/05/12 03:59:00;;;;;;;3.23;2.97;;;21.60;91.40;;;;;;4981089;28;20473;-79
2023/05/12 04:01:28;;;;;;;2.37;2.17;;;21.60;91.30;;;;;;4982821;28;20473;-79
2023/05/12 04:03:54;;;;;;;2.93;2.47;;;21.60;91.40;;;;;;4983262;28;20940;-79
2023/05/12 04:06:21;;;;;;;2.80;2.60;;;21.60;91.40;;;;;;4985265;28;20832;-79
2023/05/12 04:08:48;;;;;;;2.95;2.55;;;21.60;91.40;;;;;;4986379;28;20452;-79
2023/05/12 04:11:14;;;;;;;3.03;2.83;;;21.60;91.40;;;;;;4987955;28;20208;-80
2023/05/12 04:13:41;;;;;;;2.93;2.67;;;21.60;91.40;;;;;;4986149;28;20472;-80
2023/05/12 04:16:08;;;;;;;2.93;2.70;;;21.60;91.30;;;;;;4980457;28;20455;-79
2023/05/12 04:18:36;;;;;;;2.57;2.37;;;21.60;91.40;;;;;;4985319;28;20890;-79
2023/05/12 04:21:04;;;;;;;3.03;2.72;;;21.60;91.40;;;;;;4983269;28;20488;-77
2023/05/12 04:23:30;;;;;;;2.87;2.67;;;21.60;91.40;;;;;;4985873;28;20294;-81
2023/05/12 04:25:57;;;;;;;3.33;3.03;;;21.60;91.40;;;;;;4984847;28;20460;-80
2023/05/12 04:28:24;;;;;;;2.60;2.40;;;21.50;91.30;;;;;;4990048;28;20829;-79
2023/05/12 04:30:51;;;;;;;2.80;2.60;;;21.50;91.40;;;;;;4985935;28;20488;-80
2023/05/12 04:33:18;;;;;;;3.00;2.70;;;21.50;91.30;;;;;;4985613;28;20198;-80
2023/05/12 04:35:46;;;;;;;2.90;2.37;;;21.50;91.30;;;;;;4983816;28;20457;-80
2023/05/12 04:38:13;;;;;;;3.40;3.10;;;21.50;91.30;;;;;;4987082;28;20475;-80
2023/05/12 04:40:39;;;;;;;3.08;2.78;;;21.50;91.30;;;;;;4982379;28;20685;-79
2023/05/12 04:43:06;;;;;;;3.60;3.30;;;21.50;91.30;;;;;;4986953;28;20212;-79
2023/05/12 04:45:33;;;;;;;2.70;2.50;;;21.50;91.30;;;;;;4977830;28;20461;-79
2023/05/12 04:48:01;;;;;;;2.60;2.40;;;21.50;91.40;;;;;;4991132;28;20202;-79
2023/05/12 04:50:28;;;;;;;2.90;2.70;;;21.50;91.40;;;;;;4983042;28;20464;-80
2023/05/12 04:52:56;;;;;;;2.65;2.40;;;21.50;91.30;;;;;;4983224;28;20216;-79
2023/05/12 04:55:23;;;;;;;2.60;2.40;;;21.50;91.40;;;;;;4987816;28;20197;-79
2023/05/12 04:57:50;;;;;;;3.47;3.17;;;21.50;91.30;;;;;;4992417;28;20459;-80
2023/05/12 05:00:17;;;;;;;2.40;2.20;;;21.50;91.40;;;;;;4985857;28;20479;-79
2023/05/12 05:02:43;;;;;;;2.90;2.67;;;21.40;91.30;;;;;;4990083;28;20207;-79
2023/05/12 05:05:10;;;;;;;3.10;2.77;;;21.40;91.30;;;;;;4990835;28;20216;-79
2023/05/12 05:07:37;;;;;;;2.57;2.37;;;21.40;91.20;;;;;;4988105;28;20472;-79
2023/05/12 05:10:07;;;;;;;3.58;2.85;;;21.40;91.40;;;;;;4993213;28;21090;-80
2023/05/12 05:12:33;;;;;;;2.50;2.30;;;21.40;91.30;;;;;;4990409;28;20208;-79
2023/05/12 05:15:00;;;;;;;3.60;3.30;;;21.40;91.30;;;;;;4993584;28;20214;-79
2023/05/12 05:17:29;;;;;;;2.40;2.20;;;21.40;91.40;;;;;;4997051;28;20469;-79
2023/05/12 05:19:56;;;;;;;2.67;2.40;;;21.40;91.30;;;;;;4990121;28;20240;-79
2023/05/12 05:22:22;;;;;;;2.25;2.05;;;21.40;91.40;;;;;;4994557;28;20644;-79
2023/05/12 05:24:49;;;;;;;2.47;2.28;;;21.40;91.40;;;;;;4991159;28;20216;-79
2023/05/12 05:27:17;;;;;;;2.55;2.35;;;21.50;91.40;;;;;;4990637;28;20212;-79
2023/05/12 05:29:44;;;;;;;2.95;2.75;;;21.50;91.40;;;;;;4990778;28;20202;-80
2023/05/12 05:32:10;;;;;;;2.50;2.30;;;21.60;91.40;;;;;;4991478;28;20647;-79
2023/05/12 05:34:37;;;;;;;2.55;2.35;;;21.60;91.40;;;;;;4996554;28;20228;-79
2023/05/12 05:37:04;;;;;;;2.65;2.45;;;21.60;91.40;;;;;;4987958;28;20692;-80
2023/05/12 05:39:31;;;;;;;2.73;2.50;;;21.60;91.60;;;;;;4977033;28;20212;-82
2023/05/12 05:41:58;;;;;;;2.40;2.20;;;21.60;91.60;;;;;;4991914;28;20995;-80
2023/05/12 05:44:26;;;;;;;2.70;2.10;;;21.70;91.70;;;;;;4994904;28;20208;-81
2023/05/12 05:46:53;;;;;;;2.40;2.20;;;21.70;91.70;;;;;;4986536;28;20452;-82
2023/05/12 05:49:19;;;;;;;2.93;2.63;;;21.70;91.70;;;;;;4992606;28;20469;-80
2023/05/12 05:51:47;;;;;;;2.73;2.53;;;21.70;91.60;;;;;;4994997;28;20916;-81
2023/05/12 05:54:16;;;;;;;3.40;3.10;;;21.60;91.50;;;;;;4995839;28;20467;-81
2023/05/12 05:56:42;;;;;;;3.10;2.83;;;21.70;91.50;;;;;;4994312;28;20228;-81
2023/05/12 05:59:09;;;;;;;2.50;2.30;;;21.70;91.50;;;;;;4988376;28;20464;-80
2023/05/12 06:01:37;;;;;;;2.60;2.40;;;21.70;91.80;;;;;;4981544;28;20495;-80
2023/05/12 06:04:04;;;;;;;2.50;2.30;;;21.70;91.50;;;;;;4983631;28;20209;-81
2023/05/12 06:06:31;;;;;;;2.50;2.30;;;21.70;91.40;;;;;;4984923;28;20468;-81
2023/05/12 06:09:00;;;;;;;2.60;2.40;;;21.70;91.40;;;;;;4986423;28;20201;-80
2023/05/12 06:11:27;;;;;;;3.45;3.17;;;21.70;91.40;;;;;;4991282;28;20463;-79
2023/05/12 06:13:53;;;;;;;2.43;2.23;;;21.80;91.40;;;;;;4984926;28;20205;-81
2023/05/12 06:16:20;;;;;;;2.63;2.42;;;21.80;91.40;;;;;;4989447;28;20487;-81
2023/05/12 06:18:48;;;;;;;2.53;2.20;;;21.80;91.40;;;;;;4990108;28;20680;-81
2023/05/12 06:21:15;;;;;;;3.03;2.73;;;21.80;91.30;;;;;;5002461;28;20486;-81
2023/05/12 06:23:42;;;;;;;3.17;2.90;;;21.80;91.30;;;;;;4992955;28;20470;-81
2023/05/12 06:26:08;;;;;;;2.50;2.30;;;21.80;91.30;;;;;;4986418;28;20452;-80
2023/05/12 06:28:35;;;;;;;2.60;2.40;;;21.90;91.30;;;;;;5001666;28;20459;-81
2023/05/12 06:31:02;;;;;;;3.00;2.70;;;21.80;91.20;;;;;;4982347;28;20477;-82
2023/05/12 06:33:28;;;;;;;1.90;1.80;;;21.90;91.30;;;;;;5000296;28;20436;-80
2023/05/12 06:35:56;;;;;;;3.07;2.70;;;21.80;91.20;;;;;;4997831;28;20832;-81
2023/05/12 06:38:23;;;;;;;2.67;2.47;;;21.90;91.20;;;;;;4993937;28;20956;-81
2023/05/12 06:40:50;;;;;;;2.30;2.10;;;21.90;91.20;;;;;;4983837;28;20597;-82
2023/05/12 06:43:17;;;;;;;2.33;2.13;;;21.90;91.20;;;;;;4988431;28;20457;-81
2023/05/12 06:45:44;;;;;;;3.30;2.57;;;21.90;91.10;;;;;;4987555;28;20828;-80
2023/05/12 06:48:11;;;;;;;3.33;2.40;;;21.90;91.10;;;;;;5000940;28;20440;-81
2023/05/12 06:50:37;;;;;;;2.43;2.23;;;21.90;91.10;;;;;;4990794;28;20910;-80
2023/05/12 06:53:06;;;;;;;2.40;2.07;;;21.90;91.10;;;;;;4990458;28;20950;-79
2023/05/12 06:55:33;;;;;;;3.50;3.20;;;21.90;91.00;;;;;;4984189;28;20870;-79
2023/05/12 06:58:00;;;;;;;2.63;2.43;;;21.90;91.10;;;;;;4988877;28;20467;-79
2023/05/12 07:00:27;;;;;;;3.10;2.80;;;21.90;91.00;;;;;;4985430;28;20480;-82
2023/05/12 07:02:53;;;;;;;2.53;2.33;;;21.90;91.00;;;;;;4989675;28;20457;-80
2023/05/12 07:05:20;;;;;;;2.73;2.47;;;21.90;91.00;;;;;;4990262;28;20464;-79
2023/05/12 07:07:47;;;;;;;2.30;2.10;;;21.90;91.30;;;;;;4990056;28;20465;-80
2023/05/12 07:10:15;;;;;;;2.53;2.33;;;21.90;91.30;;;;;;4991209;28;20460;-82
2023/05/12 07:12:42;;;;;;;2.10;1.90;;;21.90;91.40;;;;;;4992659;28;20467;-84
2023/05/12 07:15:09;;;;;;;2.70;2.03;;;21.90;91.60;;;;;;4995139;28;20460;-86
2023/05/12 07:17:36;;;;;;;4.00;2.30;;;21.90;91.40;;;;;;4996832;28;20966;-83
2023/05/12 07:20:04;;;;;;;2.40;2.20;;;21.90;91.40;;;;;;4990542;28;20464;-84
2023/05/12 07:22:32;;;;;;;5.70;2.43;;;21.90;91.30;;;;;;4987220;28;20464;-83
2023/05/12 07:24:58;;;;;;;5.00;3.07;;;21.90;91.20;;;;;;4978111;28;20618;-86
2023/05/12 07:27:26;;;;;;;8.07;2.70;;;22.00;91.40;;;;;;4978737;28;20960;-86
2023/05/12 07:29:53;;;;;;;3.43;2.57;;;21.90;91.10;;;;;;4987434;28;20469;-88
2023/05/12 07:32:20;;;;;;;10.43;2.70;;;21.90;90.60;;;;;;4976823;28;20457;-83
2023/05/12 07:34:47;;;;;;;3.93;2.60;;;21.80;90.40;;;;;;4977047;28;20511;-80
2023/05/12 07:37:14;;;;;;;5.73;2.40;;;21.80;90.20;;;;;;4976217;28;20492;-80
2023/05/12 07:39:40;;;;;;;4.10;2.53;;;21.70;90.30;;;;;;4977682;28;20454;-81
2023/05/12 07:42:07;;;;;;;5.60;2.30;;;21.80;90.40;;;;;;4983843;28;20482;-81
2023/05/12 07:44:35;;;;;;;7.77;2.20;;;21.80;90.40;;;;;;4985482;28;20497;-80
2023/05/12 07:47:02;;;;;;;2.90;2.00;;;21.80;90.40;;;;;;4981281;28;20951;-79
2023/05/12 07:49:29;;;;;;;5.40;2.40;;;21.80;90.30;;;;;;4992170;28;20495;-80
2023/05/12 07:51:56;;;;;;;2.47;2.13;;;21.80;90.30;;;;;;4989914;28;20544;-82
2023/05/12 07:54:22;;;;;;;5.13;2.47;;;21.80;90.30;;;;;;4985234;28;20587;-82
2023/05/12 07:56:49;;;;;;;3.80;2.23;;;21.90;90.50;;;;;;4982177;28;20491;-83
2023/05/12 07:59:16;;;;;;;6.93;2.00;;;21.90;90.50;;;;;;4987768;28;20940;-83
2023/05/12 08:01:44;;;;;;;3.77;1.80;;;21.90;90.50;;;;;;4978477;28;21015;-84
2023/05/12 08:04:11;;;;;;;3.33;1.70;;;21.90;90.50;;;;;;4986940;28;20549;-84
2023/05/12 08:06:38;;;;;;;1.80;1.70;;;21.90;90.30;;;;;;4991253;28;20460;-84
2023/05/12 08:09:05;;;;;;;7.43;1.90;;;21.90;90.30;;;;;;4991774;28;20460;-84
2023/05/12 08:11:32;;;;;;;6.40;2.70;;;21.90;90.20;;;;;;4990194;28;20474;-84
2023/05/12 08:13:59;;;;;;;5.83;2.30;;;21.80;90.10;;;;;;4987722;28;20457;-84
2023/05/12 08:16:25;;;;;;;2.93;2.30;;;21.90;90.10;;;;;;4984135;28;20555;-84
2023/05/12 08:18:53;;;;;;;3.60;1.93;;;21.80;90.10;;;;;;4987221;28;20472;-84
2023/05/12 08:21:20;;;;;;;3.60;2.10;;;21.80;90.00;;;;;;4987963;28;20978;-84
2023/05/12 08:23:47;;;;;;;4.93;1.83;;;21.80;89.50;;;;;;4985182;28;20224;-85
2023/05/12 08:26:14;;;;;;;3.80;2.50;;;21.80;89.30;;;;;;4988374;28;20464;-83
2023/05/12 08:28:40;;;;;;;8.03;2.20;;;21.80;89.30;;;;;;4984937;28;20551;-83
2023/05/12 08:31:07;;;;;;;8.37;3.03;;;21.80;89.20;;;;;;4987363;28;20488;-84
2023/05/12 08:33:34;;;;;;;16.93;4.40;;;21.80;88.90;;;;;;4985475;28;20461;-85
2023/05/12 08:36:03;;;;;;;23.70;5.10;;;21.70;88.80;;;;;;4986972;28;20495;-84
2023/05/12 08:38:30;;;;;;;9.43;3.77;;;21.80;88.50;;;;;;4986397;28;20463;-85
2023/05/12 08:41:08;;;;;;;3.37;2.97;;;21.70;88.40;;;;;;4978951;28;20862;-85
2023/05/12 08:43:40;;;;;;;12.37;3.23;;;21.70;88.10;;;;;;4981749;28;20854;-85
2023/05/12 08:46:07;;;;;;;4.93;2.63;;;21.70;87.60;;;;;;4986086;28;20469;-85
2023/05/12 08:48:35;;;;;;;5.83;2.80;;;21.70;87.30;;;;;;4987895;28;20467;-84
2023/05/12 08:51:06;;;;;;;5.83;2.30;;;21.70;87.10;;;;;;4981769;28;20464;-85
2023/05/12 08:53:35;;;;;;;8.33;2.07;;;21.60;87.00;;;;;;4990617;28;20460;-85
2023/05/12 08:56:03;;;;;;;4.70;2.30;;;21.60;86.80;;;;;;4997797;28;20468;-86
2023/05/12 08:58:33;;;;;;;6.03;1.90;;;21.60;86.70;;;;;;4989680;28;20951;-85
2023/05/12 09:01:02;;;;;;;2.40;1.93;;;21.60;86.50;;;;;;4983419;28;20994;-85
2023/05/12 09:03:30;;;;;;;5.07;2.10;;;21.60;86.30;;;;;;4981576;28;20497;-85
2023/05/12 09:05:58;;;;;;;2.50;1.80;;;21.60;86.10;;;;;;4984237;28;20483;-85
2023/05/12 09:08:29;;;;;;;2.40;2.20;;;21.60;86.20;;;;;;4979797;28;20456;-85
2023/05/12 09:10:57;;;;;;;2.70;1.80;;;21.60;86.10;;;;;;4981970;28;20448;-85
2023/05/12 09:13:33;;;;;;;3.25;2.60;;;21.60;85.90;;;;;;4981446;28;20251;-85
2023/05/12 09:16:01;;;;;;;3.20;2.27;;;21.50;85.60;;;;;;4977267;28;20212;-85
2023/05/12 09:18:42;;;;;;;2.73;1.73;;;21.50;85.60;;;;;;4982063;28;20923;-87
2023/05/12 09:21:09;;;;;;;5.57;1.67;;;21.60;85.90;;;;;;4981269;28;20480;-85
2023/05/12 09:23:38;;;;;;;3.20;1.70;;;21.60;86.10;;;;;;4979236;28;21576;-85
2023/05/12 09:26:06;;;;;;;2.27;1.70;;;21.60;86.10;;;;;;4972203;28;20460;-85
2023/05/12 09:28:37;;;;;;;2.60;1.63;;;21.60;86.10;;;;;;4985957;28;20814;-85
2023/05/12 09:31:15;;;;;;;5.18;2.08;;;21.60;86.00;;;;;;4983977;28;20543;-85
2023/05/12 09:33:42;;;;;;;2.55;2.00;;;21.60;86.20;;;;;;4995046;28;20239;-85
2023/05/12 09:36:09;;;;;;;2.42;2.00;;;21.60;86.10;;;;;;4996949;28;20226;-85
2023/05/12 09:38:39;;;;;;;2.17;1.97;;;21.50;85.70;;;;;;4989482;28;20712;-85
2023/05/12 09:41:06;;;;;;;4.53;2.83;;;21.60;85.60;;;;;;4979567;28;20492;-85
2023/05/12 09:43:33;;;;;;;3.17;2.37;;;21.60;85.50;;;;;;4984089;28;20460;-84
2023/05/12 09:46:05;;;;;;;4.33;2.40;;;21.60;86.00;;;;;;4981614;28;20488;-85
2023/05/12 09:48:32;;;;;;;3.25;2.50;;;21.60;85.70;;;;;;4992571;28;20449;-85
2023/05/12 09:50:59;;;;;;;1.70;1.60;;;21.60;85.60;;;;;;4986117;28;20216;-86
2023/05/12 09:53:26;;;;;;;3.50;2.00;;;21.50;85.50;;;;;;4986362;28;20466;-85
2023/05/12 09:55:54;;;;;;;2.63;2.43;;;21.50;86.30;;;;;;4988099;28;20552;-85
2023/05/12 09:58:21;;;;;;;1.90;1.80;;;21.50;85.40;;;;;;4994375;28;20998;-85
2023/05/12 10:00:49;;;;;;;3.53;1.80;;;21.50;85.40;;;;;;4981635;28;20453;-88
2023/05/12 10:03:20;;;;;;;2.17;1.83;;;21.50;85.40;;;;;;4987913;28;21026;-87
2023/05/12 10:05:50;;;;;;;2.67;2.47;;;21.50;85.00;;;;;;4985724;28;20451;-88
2023/05/12 10:08:21;;;;;;;4.83;2.17;;;21.50;84.90;;;;;;4992973;28;20461;-88
2023/05/12 10:10:50;;;;;;;3.60;2.73;;;21.50;84.70;;;;;;4981677;28;20449;-84
2023/05/12 10:13:19;;;;;;;8.07;1.60;;;21.50;84.60;;;;;;4985667;28;20456;-83
2023/05/12 10:15:49;;;;;;;4.53;1.63;;;21.50;85.00;;;;;;4979336;28;20463;-82
2023/05/12 10:18:17;;;;;;;2.70;1.77;;;21.60;85.40;;;;;;4980662;28;20457;-83
2023/05/12 10:20:45;;;;;;;4.22;1.85;;;21.60;85.50;;;;;;4989078;28;22000;-86
2023/05/12 10:23:13;;;;;;;2.33;1.70;;;21.70;85.60;;;;;;4986024;28;20222;-84
2023/05/12 10:25:41;;;;;;;1.53;1.43;;;21.80;85.90;;;;;;4985230;28;20503;-83
2023/05/12 10:28:11;;;;;;;1.90;1.70;;;21.80;86.00;;;;;;4988759;28;20509;-90
2023/05/12 10:30:41;;;;;;;2.93;1.83;;;21.90;86.30;;;;;;4987500;28;20455;-89
2023/05/12 10:33:10;;;;;;;3.17;1.90;;;21.90;86.40;;;;;;4991894;28;20460;-88
2023/05/12 10:35:39;;;;;;;3.50;1.63;;;21.90;86.60;;;;;;4992675;28;20512;-85
2023/05/12 10:38:07;;;;;;;1.40;1.30;;;22.00;86.80;;;;;;4991091;28;20460;-86
2023/05/12 10:40:34;;;;;;;1.70;1.50;;;21.90;86.70;;;;;;4987479;28;20461;-88
2023/05/12 10:43:01;;;;;;;1.50;1.30;;;22.00;86.90;;;;;;4983163;28;20491;-88
2023/05/12 10:45:28;;;;;;;2.77;1.60;;;22.00;87.00;;;;;;4992350;28;20468;-86
2023/05/12 10:48:07;;;;;;;1.93;1.60;;;22.00;87.00;;;;;;4995446;28;20465;-87
2023/05/12 10:50:34;;;;;;;3.77;1.87;;;22.10;87.10;;;;;;4975578;28;20985;-84
2023/05/12 10:53:00;;;;;;;1.90;1.70;;;22.00;87.00;;;;;;4985443;28;20472;-84
2023/05/12 10:55:41;;;;;;;1.93;1.33;;;22.10;86.70;;;;;;4992826;28;20468;-86
2023/05/12 10:58:10;;;;;;;3.87;2.03;;;22.10;87.10;;;;;;4982018;28;20464;-85
2023/05/12 11:00:44;;;;;;;1.50;1.33;;;22.10;87.50;;;;;;4976456;28;20556;-84
2023/05/12 11:03:15;;;;;;;1.73;1.63;;;22.20;87.60;;;;;;4981706;28;20975;-84
2023/05/12 11:05:42;;;;;;;2.00;1.80;;;22.10;87.50;;;;;;4978744;28;20463;-86
2023/05/12 11:08:09;;;;;;;1.70;1.60;;;22.20;87.60;;;;;;4984663;28;20465;-86
2023/05/12 11:10:36;;;;;;;1.47;1.37;;;22.20;87.60;;;;;;4976436;28;20818;-85
2023/05/12 11:13:03;;;;;;;2.17;1.77;;;22.20;87.60;;;;;;4996190;28;20986;-85
2023/05/12 11:15:30;;;;;;;2.43;1.60;;;22.30;87.70;;;;;;4985035;28;20920;-86
2023/05/12 11:17:56;;;;;;;3.60;2.23;;;22.30;87.60;;;;;;4990472;28;20962;-84
2023/05/12 11:20:25;;;;;;;3.23;1.93;;;22.30;87.00;;;;;;4984030;28;20974;-84
2023/05/12 11:22:53;;;;;;;2.30;2.20;;;22.30;87.10;;;;;;4987971;28;20990;-85
2023/05/12 11:25:19;;;;;;;2.30;1.60;;;22.30;86.40;;;;;;4981323;28;20470;-85
2023/05/12 11:27:47;;;;;;;2.60;2.03;;;22.30;86.00;;;;;;4979517;28;20824;-84
2023/05/12 11:30:14;;;;;;;2.73;2.53;;;22.30;86.20;;;;;;4975307;28;20461;-84
2023/05/12 11:32:41;;;;;;;2.43;2.13;;;22.30;86.00;;;;;;4987762;28;21008;-84
2023/05/12 11:35:12;;;;;;;5.60;2.10;;;22.30;85.90;;;;;;4983167;28;20479;-83
2023/05/12 11:37:42;;;;;;;3.50;2.00;;;22.30;85.80;;;;;;4985461;28;20999;-82
2023/05/12 11:40:16;;;;;;;2.20;2.00;;;22.30;85.60;;;;;;4980764;28;20980;-83
2023/05/12 11:42:47;;;;;;;2.33;2.13;;;22.40;85.70;;;;;;4983396;28;20490;-86
2023/05/12 11:45:24;;;;;;;2.47;2.00;;;22.30;85.40;;;;;;4986553;28;20548;-86
2023/05/12 11:47:51;;;;;;;2.00;1.80;;;22.40;85.50;;;;;;4983853;28;20959;-87
2023/05/12 11:50:23;;;;;;;2.27;2.07;;;22.40;85.60;;;;;;4975083;28;20627;-86
2023/05/12 11:52:52;;;;;;;2.83;2.17;;;22.40;85.60;;;;;;4985168;28;20471;-87
2023/05/12 11:55:24;;;;;;;2.40;2.20;;;22.40;85.50;;;;;;4974474;28;20471;-86
2023/05/12 11:57:59;;;;;;;2.23;2.03;;;22.40;85.50;;;;;;4987026;28;20464;-88
2023/05/12 12:00:33;;;;;;;4.97;2.17;;;22.40;85.60;;;;;;4989027;28;20467;-88
2023/05/12 12:03:11;;;;;;;2.23;2.07;;;22.40;85.20;;;;;;4981535;28;20480;-87
2023/05/12 12:05:38;;;;;;;2.67;2.47;;;22.40;84.90;;;;;;4986047;28;20467;-89
2023/05/12 12:08:12;;;;;;;2.30;2.10;;;22.50;84.90;;;;;;4993627;28;20460;-87
2023/05/12 12:10:43;;;;;;;2.17;2.03;;;22.50;85.00;;;;;;4994260;28;20588;-86
2023/05/12 12:13:10;;;;;;;3.50;2.30;;;22.50;84.90;;;;;;4995515;28;20468;-82
2023/05/12 12:15:37;;;;;;;7.20;2.90;;;22.50;84.70;;;;;;4980133;28;20544;-83
2023/05/12 12:18:04;;;;;;;3.47;3.17;;;22.50;84.70;;;;;;4994831;28;20456;-83
2023/05/12 12:20:31;;;;;;;2.57;1.90;;;22.50;84.40;;;;;;4995829;28;20966;-89
2023/05/12 12:22:57;;;;;;;2.60;2.40;;;22.50;84.20;;;;;;4987774;28;20487;-90
2023/05/12 12:25:27;;;;;;;3.03;2.10;;;22.50;84.20;;;;;;4993605;28;20934;-94
2023/05/12 12:27:54;;;;;;;2.50;2.30;;;22.60;84.40;;;;;;4991884;28;20472;-82
2023/05/12 12:30:21;;;;;;;4.33;2.50;;;22.60;84.40;;;;;;4983890;28;20457;-82
2023/05/12 12:32:47;;;;;;;4.13;2.10;;;22.60;84.10;;;;;;4993230;28;20915;-84
2023/05/12 12:35:14;;;;;;;2.80;2.40;;;22.60;84.30;;;;;;4990126;28;20461;-82
2023/05/12 12:37:41;;;;;;;4.27;2.70;;;22.60;83.90;;;;;;4988631;28;20476;-82
2023/05/12 12:40:09;;;;;;;2.33;2.17;;;22.60;84.70;;;;;;4986442;28;20848;-82
2023/05/12 12:42:40;;;;;;;4.40;2.90;;;22.60;83.90;;;;;;4991320;28;20515;-82
2023/05/12 12:45:08;;;;;;;2.67;2.40;;;22.60;83.90;;;;;;4984970;28;20503;-82
2023/05/12 12:47:35;;;;;;;3.93;2.37;;;22.60;83.80;;;;;;4990147;28;20475;-82